sensor_id;sensor_type;location;lat;lon;timestamp;P1;durP1;ratioP1;P2;durP2;ratioP2
35743;SDS011;21867;52.012;4.324;2024-02-14T00:01:19;19.20;;;17.60;;
35743;SDS011;21867;52.012;4.324;2024-02-14T00:03:48;15.70;;;14.50;;
35743;SDS011;21867;52.012;4.324;2024-02-14T00:06:16;19.73;;;18.13;;
35743;SDS011;21867;52.012;4.324;2024-02-14T00:08:43;19.80;;;18.10;;
35743;SDS011;21867;52.012;4.324;2024-02-14T00:11:10;17.80;;;16.30;;
35743;SDS011;21867;52.012;4.324;2024-02-14T00:13:38;19.50;;;17.90;;
35743;SDS011;21867;52.012;4.324;2024-02-14T00:16:05;19.27;;;17.80;;
35743;SDS011;21867;52.012;4.324;2024-02-14T00:18:33;24.90;;;23.13;;
35743;SDS011;21867;52.012;4.324;2024-02-14T00:21:02;21.40;;;19.70;;
35743;SDS011;21867;52.012;4.324;2024-02-14T00:23:29;18.30;;;16.80;;
35743;SDS011;21867;52.012;4.324;2024-02-14T00:25:57;20.70;;;19.20;;
35743;SDS011;21867;52.012;4.324;2024-02-14T00:28:30;20.83;;;19.07;;
35743;SDS011;21867;52.012;4.324;2024-02-14T00:30:58;21.20;;;19.53;;
35743;SDS011;21867;52.012;4.324;2024-02-14T00:33:25;23.33;;;21.63;;
35743;SDS011;21867;52.012;4.324;2024-02-14T00:35:53;25.53;;;23.37;;
35743;SDS011;21867;52.012;4.324;2024-02-14T00:38:22;25.90;;;23.70;;
35743;SDS011;21867;52.012;4.324;2024-02-14T00:40:49;27.33;;;25.20;;
35743;SDS011;21867;52.012;4.324;2024-02-14T00:43:17;27.10;;;24.83;;
35743;SDS011;21867;52.012;4.324;2024-02-14T00:46:02;27.50;;;25.70;;
35743;SDS011;21867;52.012;4.324;2024-02-14T00:48:31;22.73;;;21.03;;
35743;SDS011;21867;52.012;4.324;2024-02-14T00:50:59;25.70;;;23.80;;
35743;SDS011;21867;52.012;4.324;2024-02-14T00:53:27;29.00;;;27.00;;
35743;SDS011;21867;52.012;4.324;2024-02-14T00:56:15;28.97;;;26.97;;
35743;SDS011;21867;52.012;4.324;2024-02-14T00:58:42;25.17;;;23.20;;
35743;SDS011;21867;52.012;4.324;2024-02-14T01:01:10;22.73;;;21.00;;
35743;SDS011;21867;52.012;4.324;2024-02-14T01:03:37;27.80;;;25.63;;
35743;SDS011;21867;52.012;4.324;2024-02-14T01:06:04;31.87;;;29.47;;
35743;SDS011;21867;52.012;4.324;2024-02-14T01:08:33;32.50;;;30.20;;
35743;SDS011;21867;52.012;4.324;2024-02-14T01:11:01;34.67;;;32.13;;
35743;SDS011;21867;52.012;4.324;2024-02-14T01:16:21;35.63;;;33.17;;
35743;SDS011;21867;52.012;4.324;2024-02-14T01:18:48;34.60;;;32.53;;
35743;SDS011;21867;52.012;4.324;2024-02-14T01:21:15;41.67;;;39.10;;
35743;SDS011;21867;52.012;4.324;2024-02-14T01:23:59;40.33;;;37.30;;
35743;SDS011;21867;52.012;4.324;2024-02-14T01:26:27;41.20;;;38.80;;
35743;SDS011;21867;52.012;4.324;2024-02-14T01:29:07;40.23;;;37.73;;
35743;SDS011;21867;52.012;4.324;2024-02-14T01:31:35;37.87;;;35.07;;
35743;SDS011;21867;52.012;4.324;2024-02-14T01:34:02;37.67;;;35.40;;
35743;SDS011;21867;52.012;4.324;2024-02-14T01:36:30;37.33;;;34.97;;
35743;SDS011;21867;52.012;4.324;2024-02-14T01:38:57;35.83;;;33.37;;
35743;SDS011;21867;52.012;4.324;2024-02-14T01:41:27;34.57;;;32.33;;
35743;SDS011;21867;52.012;4.324;2024-02-14T01:43:55;28.83;;;26.93;;
35743;SDS011;21867;52.012;4.324;2024-02-14T01:46:23;37.27;;;34.93;;
35743;SDS011;21867;52.012;4.324;2024-02-14T01:48:51;41.60;;;38.87;;
35743;SDS011;21867;52.012;4.324;2024-02-14T01:51:19;38.40;;;35.83;;
35743;SDS011;21867;52.012;4.324;2024-02-14T01:53:55;43.67;;;41.17;;
35743;SDS011;21867;52.012;4.324;2024-02-14T01:59:15;55.37;;;52.07;;
35743;SDS011;21867;52.012;4.324;2024-02-14T02:01:43;44.60;;;41.73;;
35743;SDS011;21867;52.012;4.324;2024-02-14T02:04:10;41.20;;;38.23;;
35743;SDS011;21867;52.012;4.324;2024-02-14T02:06:38;50.50;;;47.60;;
35743;SDS011;21867;52.012;4.324;2024-02-14T02:09:05;57.43;;;53.87;;
35743;SDS011;21867;52.012;4.324;2024-02-14T02:11:42;49.73;;;46.63;;
35743;SDS011;21867;52.012;4.324;2024-02-14T02:14:16;47.60;;;44.67;;
35743;SDS011;21867;52.012;4.324;2024-02-14T02:16:43;48.37;;;45.07;;
35743;SDS011;21867;52.012;4.324;2024-02-14T02:19:11;43.63;;;40.27;;
35743;SDS011;21867;52.012;4.324;2024-02-14T02:21:38;45.97;;;43.07;;
35743;SDS011;21867;52.012;4.324;2024-02-14T02:27:20;42.97;;;39.60;;
35743;SDS011;21867;52.012;4.324;2024-02-14T02:29:48;47.60;;;44.17;;
35743;SDS011;21867;52.012;4.324;2024-02-14T02:32:15;52.30;;;48.27;;
35743;SDS011;21867;52.012;4.324;2024-02-14T02:34:43;42.37;;;39.33;;
35743;SDS011;21867;52.012;4.324;2024-02-14T02:37:11;42.07;;;38.53;;
35743;SDS011;21867;52.012;4.324;2024-02-14T02:39:38;30.80;;;27.87;;
35743;SDS011;21867;52.012;4.324;2024-02-14T02:42:07;47.03;;;43.00;;
35743;SDS011;21867;52.012;4.324;2024-02-14T02:44:37;52.97;;;48.83;;
35743;SDS011;21867;52.012;4.324;2024-02-14T02:47:05;42.43;;;39.30;;
35743;SDS011;21867;52.012;4.324;2024-02-14T02:49:33;48.00;;;44.63;;
35743;SDS011;21867;52.012;4.324;2024-02-14T02:52:01;59.90;;;54.73;;
35743;SDS011;21867;52.012;4.324;2024-02-14T02:57:32;51.63;;;47.07;;
35743;SDS011;21867;52.012;4.324;2024-02-14T03:00:01;55.43;;;50.80;;
35743;SDS011;21867;52.012;4.324;2024-02-14T03:02:28;32.80;;;29.63;;
35743;SDS011;21867;52.012;4.324;2024-02-14T03:04:56;40.63;;;35.97;;
35743;SDS011;21867;52.012;4.324;2024-02-14T03:07:23;34.40;;;31.50;;
35743;SDS011;21867;52.012;4.324;2024-02-14T03:09:51;19.23;;;13.17;;
35743;SDS011;21867;52.012;4.324;2024-02-14T03:12:18;26.97;;;17.93;;
35743;SDS011;21867;52.012;4.324;2024-02-14T03:14:46;41.17;;;37.23;;
35743;SDS011;21867;52.012;4.324;2024-02-14T03:17:15;57.73;;;53.03;;
35743;SDS011;21867;52.012;4.324;2024-02-14T03:19:42;69.17;;;64.53;;
35743;SDS011;21867;52.012;4.324;2024-02-14T03:22:10;44.93;;;40.73;;
35743;SDS011;21867;52.012;4.324;2024-02-14T03:24:38;38.07;;;30.53;;
35743;SDS011;21867;52.012;4.324;2024-02-14T03:27:05;47.47;;;43.60;;
35743;SDS011;21867;52.012;4.324;2024-02-14T03:29:32;47.17;;;43.30;;
35743;SDS011;21867;52.012;4.324;2024-02-14T03:32:00;38.60;;;34.20;;
35743;SDS011;21867;52.012;4.324;2024-02-14T03:34:28;64.87;;;59.37;;
35743;SDS011;21867;52.012;4.324;2024-02-14T03:36:56;63.50;;;59.47;;
35743;SDS011;21867;52.012;4.324;2024-02-14T03:39:23;48.33;;;44.23;;
35743;SDS011;21867;52.012;4.324;2024-02-14T03:41:50;50.77;;;46.73;;
35743;SDS011;21867;52.012;4.324;2024-02-14T03:44:18;64.23;;;59.20;;
35743;SDS011;21867;52.012;4.324;2024-02-14T03:46:46;60.77;;;56.47;;
35743;SDS011;21867;52.012;4.324;2024-02-14T03:49:13;68.57;;;64.17;;
35743;SDS011;21867;52.012;4.324;2024-02-14T03:51:42;42.40;;;38.50;;
35743;SDS011;21867;52.012;4.324;2024-02-14T03:54:09;40.43;;;36.27;;
35743;SDS011;21867;52.012;4.324;2024-02-14T03:56:43;65.57;;;61.30;;
35743;SDS011;21867;52.012;4.324;2024-02-14T03:59:11;39.57;;;35.73;;
35743;SDS011;21867;52.012;4.324;2024-02-14T04:01:38;65.20;;;60.53;;
35743;SDS011;21867;52.012;4.324;2024-02-14T04:04:10;37.50;;;33.87;;
35743;SDS011;21867;52.012;4.324;2024-02-14T04:06:38;48.17;;;44.53;;
35743;SDS011;21867;52.012;4.324;2024-02-14T04:09:07;48.90;;;45.03;;
35743;SDS011;21867;52.012;4.324;2024-02-14T04:11:39;56.43;;;51.73;;
35743;SDS011;21867;52.012;4.324;2024-02-14T04:14:06;46.97;;;43.13;;
35743;SDS011;21867;52.012;4.324;2024-02-14T04:16:34;49.40;;;45.40;;
35743;SDS011;21867;52.012;4.324;2024-02-14T04:19:02;48.83;;;44.13;;
35743;SDS011;21867;52.012;4.324;2024-02-14T04:21:36;50.80;;;46.77;;
35743;SDS011;21867;52.012;4.324;2024-02-14T04:24:11;31.77;;;20.70;;
35743;SDS011;21867;52.012;4.324;2024-02-14T04:26:44;41.53;;;37.23;;
35743;SDS011;21867;52.012;4.324;2024-02-14T04:29:11;34.23;;;30.03;;
35743;SDS011;21867;52.012;4.324;2024-02-14T04:31:39;25.90;;;23.37;;
35743;SDS011;21867;52.012;4.324;2024-02-14T04:34:06;25.10;;;19.20;;
35743;SDS011;21867;52.012;4.324;2024-02-14T04:36:33;48.57;;;44.17;;
35743;SDS011;21867;52.012;4.324;2024-02-14T04:39:01;71.40;;;65.63;;
35743;SDS011;21867;52.012;4.324;2024-02-14T04:41:30;59.33;;;54.80;;
35743;SDS011;21867;52.012;4.324;2024-02-14T04:43:57;50.17;;;45.70;;
35743;SDS011;21867;52.012;4.324;2024-02-14T04:46:24;33.40;;;30.37;;
35743;SDS011;21867;52.012;4.324;2024-02-14T04:48:52;41.50;;;37.80;;
35743;SDS011;21867;52.012;4.324;2024-02-14T04:51:19;60.70;;;56.53;;
35743;SDS011;21867;52.012;4.324;2024-02-14T04:53:47;50.23;;;47.00;;
35743;SDS011;21867;52.012;4.324;2024-02-14T04:56:14;42.03;;;39.17;;
35743;SDS011;21867;52.012;4.324;2024-02-14T04:58:43;62.23;;;58.10;;
35743;SDS011;21867;52.012;4.324;2024-02-14T05:01:17;55.57;;;51.93;;
35743;SDS011;21867;52.012;4.324;2024-02-14T05:03:44;18.40;;;16.57;;
35743;SDS011;21867;52.012;4.324;2024-02-14T05:06:12;48.53;;;44.60;;
35743;SDS011;21867;52.012;4.324;2024-02-14T05:08:39;41.20;;;38.07;;
35743;SDS011;21867;52.012;4.324;2024-02-14T05:11:07;18.53;;;14.70;;
35743;SDS011;21867;52.012;4.324;2024-02-14T05:13:34;23.50;;;21.53;;
35743;SDS011;21867;52.012;4.324;2024-02-14T05:16:03;45.93;;;42.17;;
35743;SDS011;21867;52.012;4.324;2024-02-14T05:18:31;61.93;;;57.43;;
35743;SDS011;21867;52.012;4.324;2024-02-14T05:20:58;32.77;;;27.43;;
35743;SDS011;21867;52.012;4.324;2024-02-14T05:23:26;25.73;;;17.93;;
35743;SDS011;21867;52.012;4.324;2024-02-14T05:25:53;42.03;;;38.70;;
35743;SDS011;21867;52.012;4.324;2024-02-14T05:28:20;62.80;;;57.93;;
35743;SDS011;21867;52.012;4.324;2024-02-14T05:30:48;53.57;;;49.90;;
35743;SDS011;21867;52.012;4.324;2024-02-14T05:33:16;47.70;;;43.10;;
35743;SDS011;21867;52.012;4.324;2024-02-14T05:35:44;57.53;;;53.20;;
35743;SDS011;21867;52.012;4.324;2024-02-14T05:38:11;72.00;;;67.07;;
35743;SDS011;21867;52.012;4.324;2024-02-14T05:40:39;75.37;;;69.73;;
35743;SDS011;21867;52.012;4.324;2024-02-14T05:43:07;68.10;;;62.63;;
35743;SDS011;21867;52.012;4.324;2024-02-14T05:45:34;63.83;;;58.20;;
35743;SDS011;21867;52.012;4.324;2024-02-14T05:48:01;37.40;;;33.87;;
35743;SDS011;21867;52.012;4.324;2024-02-14T05:50:30;63.60;;;58.60;;
35743;SDS011;21867;52.012;4.324;2024-02-14T05:52:58;98.77;;;92.33;;
35743;SDS011;21867;52.012;4.324;2024-02-14T05:55:25;67.57;;;62.73;;
35743;SDS011;21867;52.012;4.324;2024-02-14T05:57:53;91.83;;;85.03;;
35743;SDS011;21867;52.012;4.324;2024-02-14T06:00:20;77.30;;;71.73;;
35743;SDS011;21867;52.012;4.324;2024-02-14T06:02:53;81.93;;;76.30;;
35743;SDS011;21867;52.012;4.324;2024-02-14T06:05:20;90.07;;;83.67;;
35743;SDS011;21867;52.012;4.324;2024-02-14T06:07:49;80.33;;;74.33;;
35743;SDS011;21867;52.012;4.324;2024-02-14T06:10:17;60.57;;;55.03;;
35743;SDS011;21867;52.012;4.324;2024-02-14T06:12:44;82.10;;;76.77;;
35743;SDS011;21867;52.012;4.324;2024-02-14T06:15:12;54.73;;;50.67;;
35743;SDS011;21867;52.012;4.324;2024-02-14T06:17:39;71.97;;;66.93;;
35743;SDS011;21867;52.012;4.324;2024-02-14T06:20:07;80.67;;;74.70;;
35743;SDS011;21867;52.012;4.324;2024-02-14T06:22:35;80.10;;;74.63;;
35743;SDS011;21867;52.012;4.324;2024-02-14T06:25:19;84.13;;;77.80;;
35743;SDS011;21867;52.012;4.324;2024-02-14T06:31:00;76.97;;;71.67;;
35743;SDS011;21867;52.012;4.324;2024-02-14T06:33:28;92.60;;;86.13;;
35743;SDS011;21867;52.012;4.324;2024-02-14T06:35:56;75.00;;;69.57;;
35743;SDS011;21867;52.012;4.324;2024-02-14T06:38:23;84.27;;;78.33;;
35743;SDS011;21867;52.012;4.324;2024-02-14T06:40:52;76.53;;;70.57;;
35743;SDS011;21867;52.012;4.324;2024-02-14T06:43:20;72.33;;;66.63;;
35743;SDS011;21867;52.012;4.324;2024-02-14T06:45:47;73.33;;;67.53;;
35743;SDS011;21867;52.012;4.324;2024-02-14T06:48:14;68.27;;;63.37;;
35743;SDS011;21867;52.012;4.324;2024-02-14T06:50:42;67.00;;;61.87;;
35743;SDS011;21867;52.012;4.324;2024-02-14T06:53:09;66.63;;;60.80;;
35743;SDS011;21867;52.012;4.324;2024-02-14T06:55:37;65.90;;;61.13;;
35743;SDS011;21867;52.012;4.324;2024-02-14T06:58:06;57.00;;;52.90;;
35743;SDS011;21867;52.012;4.324;2024-02-14T07:00:38;62.43;;;57.83;;
35743;SDS011;21867;52.012;4.324;2024-02-14T07:03:05;57.03;;;52.87;;
35743;SDS011;21867;52.012;4.324;2024-02-14T07:05:33;53.93;;;49.67;;
35743;SDS011;21867;52.012;4.324;2024-02-14T07:08:01;66.47;;;61.80;;
35743;SDS011;21867;52.012;4.324;2024-02-14T07:10:29;62.40;;;57.47;;
35743;SDS011;21867;52.012;4.324;2024-02-14T07:12:56;59.53;;;54.60;;
35743;SDS011;21867;52.012;4.324;2024-02-14T07:15:25;53.27;;;48.93;;
35743;SDS011;21867;52.012;4.324;2024-02-14T07:17:52;56.10;;;51.63;;
35743;SDS011;21867;52.012;4.324;2024-02-14T07:20:20;54.23;;;50.43;;
35743;SDS011;21867;52.012;4.324;2024-02-14T07:22:47;50.27;;;46.27;;
35743;SDS011;21867;52.012;4.324;2024-02-14T07:25:15;55.53;;;51.10;;
35743;SDS011;21867;52.012;4.324;2024-02-14T07:27:43;52.80;;;48.87;;
35743;SDS011;21867;52.012;4.324;2024-02-14T07:30:19;54.10;;;49.97;;
35743;SDS011;21867;52.012;4.324;2024-02-14T07:32:48;53.10;;;48.97;;
35743;SDS011;21867;52.012;4.324;2024-02-14T07:35:16;55.10;;;50.93;;
35743;SDS011;21867;52.012;4.324;2024-02-14T07:37:43;52.20;;;48.50;;
35743;SDS011;21867;52.012;4.324;2024-02-14T07:40:11;53.37;;;48.87;;
35743;SDS011;21867;52.012;4.324;2024-02-14T07:42:42;51.40;;;47.10;;
35743;SDS011;21867;52.012;4.324;2024-02-14T07:45:09;49.73;;;45.50;;
35743;SDS011;21867;52.012;4.324;2024-02-14T07:47:37;52.80;;;47.87;;
35743;SDS011;21867;52.012;4.324;2024-02-14T07:50:06;53.47;;;49.17;;
35743;SDS011;21867;52.012;4.324;2024-02-14T07:52:33;49.87;;;46.20;;
35743;SDS011;21867;52.012;4.324;2024-02-14T07:55:03;48.73;;;45.17;;
35743;SDS011;21867;52.012;4.324;2024-02-14T07:57:30;46.13;;;43.17;;
35743;SDS011;21867;52.012;4.324;2024-02-14T07:59:57;43.67;;;40.47;;
35743;SDS011;21867;52.012;4.324;2024-02-14T08:02:25;42.23;;;39.43;;
35743;SDS011;21867;52.012;4.324;2024-02-14T08:04:52;40.17;;;37.37;;
35743;SDS011;21867;52.012;4.324;2024-02-14T08:07:21;43.27;;;40.57;;
35743;SDS011;21867;52.012;4.324;2024-02-14T08:09:48;36.37;;;34.03;;
35743;SDS011;21867;52.012;4.324;2024-02-14T08:12:15;41.13;;;38.70;;
35743;SDS011;21867;52.012;4.324;2024-02-14T08:14:43;45.43;;;42.60;;
35743;SDS011;21867;52.012;4.324;2024-02-14T08:17:10;42.87;;;40.27;;
35743;SDS011;21867;52.012;4.324;2024-02-14T08:19:37;44.93;;;42.00;;
35743;SDS011;21867;52.012;4.324;2024-02-14T08:22:05;45.07;;;41.97;;
35743;SDS011;21867;52.012;4.324;2024-02-14T08:24:34;43.83;;;40.97;;
35743;SDS011;21867;52.012;4.324;2024-02-14T08:27:01;46.33;;;43.37;;
35743;SDS011;21867;52.012;4.324;2024-02-14T08:29:28;42.80;;;40.10;;
35743;SDS011;21867;52.012;4.324;2024-02-14T08:31:56;44.00;;;41.27;;
35743;SDS011;21867;52.012;4.324;2024-02-14T08:34:23;46.57;;;43.17;;
35743;SDS011;21867;52.012;4.324;2024-02-14T08:36:51;46.30;;;43.17;;
35743;SDS011;21867;52.012;4.324;2024-02-14T08:39:18;50.13;;;46.83;;
35743;SDS011;21867;52.012;4.324;2024-02-14T08:41:47;45.10;;;41.77;;
35743;SDS011;21867;52.012;4.324;2024-02-14T08:44:14;49.30;;;45.83;;
35743;SDS011;21867;52.012;4.324;2024-02-14T08:46:42;57.33;;;53.60;;
35743;SDS011;21867;52.012;4.324;2024-02-14T08:49:09;60.97;;;55.93;;
35743;SDS011;21867;52.012;4.324;2024-02-14T08:51:38;55.47;;;51.77;;
35743;SDS011;21867;52.012;4.324;2024-02-14T08:54:24;54.00;;;50.67;;
35743;SDS011;21867;52.012;4.324;2024-02-14T08:56:53;57.87;;;53.90;;
35743;SDS011;21867;52.012;4.324;2024-02-14T08:59:20;52.33;;;48.90;;
35743;SDS011;21867;52.012;4.324;2024-02-14T09:01:48;51.73;;;48.20;;
35743;SDS011;21867;52.012;4.324;2024-02-14T09:04:15;52.50;;;49.07;;
35743;SDS011;21867;52.012;4.324;2024-02-14T09:06:43;49.80;;;46.60;;
35743;SDS011;21867;52.012;4.324;2024-02-14T09:09:10;55.83;;;52.03;;
35743;SDS011;21867;52.012;4.324;2024-02-14T09:11:38;50.50;;;47.37;;
35743;SDS011;21867;52.012;4.324;2024-02-14T09:14:07;51.30;;;48.20;;
35743;SDS011;21867;52.012;4.324;2024-02-14T09:16:34;50.43;;;46.90;;
35743;SDS011;21867;52.012;4.324;2024-02-14T09:19:01;50.20;;;47.20;;
35743;SDS011;21867;52.012;4.324;2024-02-14T09:21:29;52.63;;;49.43;;
35743;SDS011;21867;52.012;4.324;2024-02-14T09:23:56;50.20;;;47.00;;
35743;SDS011;21867;52.012;4.324;2024-02-14T09:26:24;49.80;;;46.70;;
35743;SDS011;21867;52.012;4.324;2024-02-14T09:28:51;50.03;;;47.03;;
35743;SDS011;21867;52.012;4.324;2024-02-14T09:31:20;49.53;;;46.37;;
35743;SDS011;21867;52.012;4.324;2024-02-14T09:33:47;51.53;;;48.33;;
35743;SDS011;21867;52.012;4.324;2024-02-14T09:36:15;50.50;;;47.13;;
35743;SDS011;21867;52.012;4.324;2024-02-14T09:38:43;47.77;;;44.40;;
35743;SDS011;21867;52.012;4.324;2024-02-14T09:41:11;48.67;;;45.57;;
35743;SDS011;21867;52.012;4.324;2024-02-14T09:43:43;52.43;;;49.30;;
35743;SDS011;21867;52.012;4.324;2024-02-14T09:46:11;50.43;;;47.20;;
35743;SDS011;21867;52.012;4.324;2024-02-14T09:48:41;44.33;;;41.57;;
35743;SDS011;21867;52.012;4.324;2024-02-14T09:51:10;43.67;;;40.83;;
35743;SDS011;21867;52.012;4.324;2024-02-14T09:53:38;46.53;;;43.73;;
35743;SDS011;21867;52.012;4.324;2024-02-14T09:56:05;49.33;;;46.30;;
35743;SDS011;21867;52.012;4.324;2024-02-14T09:58:33;44.37;;;41.67;;
35743;SDS011;21867;52.012;4.324;2024-02-14T10:01:01;44.37;;;41.43;;
35743;SDS011;21867;52.012;4.324;2024-02-14T10:03:28;40.37;;;37.87;;
35743;SDS011;21867;52.012;4.324;2024-02-14T10:05:57;42.67;;;40.07;;
35743;SDS011;21867;52.012;4.324;2024-02-14T10:08:24;43.20;;;40.53;;
35743;SDS011;21867;52.012;4.324;2024-02-14T10:10:52;41.80;;;39.00;;
35743;SDS011;21867;52.012;4.324;2024-02-14T10:13:23;40.57;;;38.07;;
35743;SDS011;21867;52.012;4.324;2024-02-14T10:15:50;39.60;;;36.80;;
35743;SDS011;21867;52.012;4.324;2024-02-14T10:18:18;39.00;;;36.53;;
35743;SDS011;21867;52.012;4.324;2024-02-14T10:20:52;38.03;;;35.43;;
35743;SDS011;21867;52.012;4.324;2024-02-14T10:23:21;36.63;;;34.03;;
35743;SDS011;21867;52.012;4.324;2024-02-14T10:25:49;33.73;;;31.53;;
35743;SDS011;21867;52.012;4.324;2024-02-14T10:28:16;34.83;;;32.63;;
35743;SDS011;21867;52.012;4.324;2024-02-14T10:30:59;33.10;;;31.13;;
35743;SDS011;21867;52.012;4.324;2024-02-14T10:33:38;35.43;;;33.13;;
35743;SDS011;21867;52.012;4.324;2024-02-14T10:36:09;33.00;;;30.70;;
35743;SDS011;21867;52.012;4.324;2024-02-14T10:38:41;32.30;;;30.10;;
35743;SDS011;21867;52.012;4.324;2024-02-14T10:41:09;31.57;;;29.67;;
35743;SDS011;21867;52.012;4.324;2024-02-14T10:43:36;29.40;;;27.43;;
35743;SDS011;21867;52.012;4.324;2024-02-14T10:46:05;29.63;;;27.63;;
35743;SDS011;21867;52.012;4.324;2024-02-14T10:48:35;29.60;;;27.60;;
35743;SDS011;21867;52.012;4.324;2024-02-14T10:51:05;28.40;;;26.40;;
35743;SDS011;21867;52.012;4.324;2024-02-14T10:53:33;29.13;;;26.97;;
35743;SDS011;21867;52.012;4.324;2024-02-14T10:56:02;28.40;;;26.53;;
35743;SDS011;21867;52.012;4.324;2024-02-14T10:58:29;27.67;;;25.77;;
35743;SDS011;21867;52.012;4.324;2024-02-14T11:03:46;28.67;;;26.33;;
35743;SDS011;21867;52.012;4.324;2024-02-14T11:06:15;25.97;;;24.07;;
35743;SDS011;21867;52.012;4.324;2024-02-14T11:08:53;24.77;;;22.87;;
35743;SDS011;21867;52.012;4.324;2024-02-14T11:11:22;25.57;;;23.57;;
35743;SDS011;21867;52.012;4.324;2024-02-14T11:13:52;22.40;;;20.50;;
35743;SDS011;21867;52.012;4.324;2024-02-14T11:16:22;22.67;;;20.83;;
35743;SDS011;21867;52.012;4.324;2024-02-14T11:18:49;24.93;;;22.87;;
35743;SDS011;21867;52.012;4.324;2024-02-14T11:21:17;22.10;;;20.30;;
35743;SDS011;21867;52.012;4.324;2024-02-14T11:23:52;23.73;;;21.57;;
35743;SDS011;21867;52.012;4.324;2024-02-14T11:26:19;23.53;;;21.40;;
35743;SDS011;21867;52.012;4.324;2024-02-14T11:28:48;26.13;;;23.73;;
35743;SDS011;21867;52.012;4.324;2024-02-14T11:31:16;23.33;;;21.13;;
35743;SDS011;21867;52.012;4.324;2024-02-14T11:36:13;21.23;;;19.43;;
35743;SDS011;21867;52.012;4.324;2024-02-14T11:38:41;21.97;;;20.07;;
35743;SDS011;21867;52.012;4.324;2024-02-14T11:41:10;23.43;;;21.33;;
35743;SDS011;21867;52.012;4.324;2024-02-14T11:43:37;21.97;;;20.07;;
35743;SDS011;21867;52.012;4.324;2024-02-14T11:46:06;22.07;;;20.23;;
35743;SDS011;21867;52.012;4.324;2024-02-14T11:48:42;21.73;;;19.83;;
35743;SDS011;21867;52.012;4.324;2024-02-14T11:54:16;24.10;;;21.97;;
35743;SDS011;21867;52.012;4.324;2024-02-14T11:56:43;21.67;;;19.67;;
35743;SDS011;21867;52.012;4.324;2024-02-14T11:59:11;21.80;;;20.10;;
35743;SDS011;21867;52.012;4.324;2024-02-14T12:01:39;21.50;;;19.40;;
35743;SDS011;21867;52.012;4.324;2024-02-14T12:04:07;20.60;;;18.80;;
35743;SDS011;21867;52.012;4.324;2024-02-14T12:06:35;20.87;;;18.80;;
35743;SDS011;21867;52.012;4.324;2024-02-14T12:09:03;20.67;;;18.87;;
35743;SDS011;21867;52.012;4.324;2024-02-14T12:11:31;21.30;;;19.53;;
35743;SDS011;21867;52.012;4.324;2024-02-14T12:14:00;18.63;;;17.07;;
35743;SDS011;21867;52.012;4.324;2024-02-14T12:16:27;17.93;;;16.33;;
35743;SDS011;21867;52.012;4.324;2024-02-14T12:19:05;18.80;;;17.10;;
35743;SDS011;21867;52.012;4.324;2024-02-14T12:21:33;20.17;;;18.23;;
35743;SDS011;21867;52.012;4.324;2024-02-14T12:24:01;18.00;;;16.50;;
35743;SDS011;21867;52.012;4.324;2024-02-14T12:26:29;20.43;;;18.53;;
35743;SDS011;21867;52.012;4.324;2024-02-14T12:28:56;18.03;;;16.43;;
35743;SDS011;21867;52.012;4.324;2024-02-14T12:31:24;18.57;;;17.07;;
35743;SDS011;21867;52.012;4.324;2024-02-14T12:33:51;18.77;;;17.20;;
35743;SDS011;21867;52.012;4.324;2024-02-14T12:39:13;18.17;;;16.57;;
35743;SDS011;21867;52.012;4.324;2024-02-14T12:41:41;20.40;;;18.37;;
35743;SDS011;21867;52.012;4.324;2024-02-14T12:44:08;18.77;;;16.87;;
35743;SDS011;21867;52.012;4.324;2024-02-14T12:46:35;19.60;;;17.90;;
35743;SDS011;21867;52.012;4.324;2024-02-14T12:49:03;17.93;;;16.07;;
35743;SDS011;21867;52.012;4.324;2024-02-14T12:51:30;18.70;;;16.97;;
35743;SDS011;21867;52.012;4.324;2024-02-14T12:54:10;20.27;;;18.23;;
35743;SDS011;21867;52.012;4.324;2024-02-14T12:56:39;16.23;;;14.70;;
35743;SDS011;21867;52.012;4.324;2024-02-14T12:59:06;19.60;;;17.80;;
35743;SDS011;21867;52.012;4.324;2024-02-14T13:01:34;20.60;;;18.33;;
35743;SDS011;21867;52.012;4.324;2024-02-14T13:04:02;20.10;;;18.07;;
35743;SDS011;21867;52.012;4.324;2024-02-14T13:06:29;19.27;;;17.57;;
35743;SDS011;21867;52.012;4.324;2024-02-14T13:08:57;16.80;;;15.30;;
35743;SDS011;21867;52.012;4.324;2024-02-14T13:11:24;17.50;;;15.90;;
35743;SDS011;21867;52.012;4.324;2024-02-14T13:13:53;16.57;;;14.97;;
35743;SDS011;21867;52.012;4.324;2024-02-14T13:16:20;16.10;;;14.33;;
35743;SDS011;21867;52.012;4.324;2024-02-14T13:18:48;13.83;;;12.17;;
35743;SDS011;21867;52.012;4.324;2024-02-14T13:21:15;13.17;;;11.97;;
35743;SDS011;21867;52.012;4.324;2024-02-14T13:23:43;15.37;;;13.60;;
35743;SDS011;21867;52.012;4.324;2024-02-14T13:26:10;13.10;;;11.90;;
35743;SDS011;21867;52.012;4.324;2024-02-14T13:28:37;12.90;;;11.70;;
35743;SDS011;21867;52.012;4.324;2024-02-14T13:31:06;13.50;;;12.40;;
35743;SDS011;21867;52.012;4.324;2024-02-14T13:33:33;10.00;;;9.23;;
35743;SDS011;21867;52.012;4.324;2024-02-14T13:36:01;9.97;;;9.17;;
35743;SDS011;21867;52.012;4.324;2024-02-14T13:38:29;10.77;;;9.87;;
35743;SDS011;21867;52.012;4.324;2024-02-14T13:40:56;10.97;;;10.07;;
35743;SDS011;21867;52.012;4.324;2024-02-14T13:43:30;9.27;;;8.50;;
35743;SDS011;21867;52.012;4.324;2024-02-14T13:45:57;8.80;;;8.10;;
35743;SDS011;21867;52.012;4.324;2024-02-14T13:48:26;8.43;;;6.90;;
35743;SDS011;21867;52.012;4.324;2024-02-14T13:50:54;9.30;;;8.60;;
35743;SDS011;21867;52.012;4.324;2024-02-14T13:53:21;9.73;;;8.93;;
35743;SDS011;21867;52.012;4.324;2024-02-14T13:55:48;8.53;;;7.73;;
35743;SDS011;21867;52.012;4.324;2024-02-14T13:58:16;8.37;;;7.70;;
35743;SDS011;21867;52.012;4.324;2024-02-14T14:00:43;7.03;;;6.40;;
35743;SDS011;21867;52.012;4.324;2024-02-14T14:03:11;6.67;;;6.07;;
35743;SDS011;21867;52.012;4.324;2024-02-14T14:05:40;7.40;;;6.70;;
35743;SDS011;21867;52.012;4.324;2024-02-14T14:08:08;6.20;;;5.80;;
35743;SDS011;21867;52.012;4.324;2024-02-14T14:10:35;5.77;;;5.27;;
35743;SDS011;21867;52.012;4.324;2024-02-14T14:13:18;6.37;;;5.77;;
35743;SDS011;21867;52.012;4.324;2024-02-14T14:15:48;6.10;;;5.63;;
35743;SDS011;21867;52.012;4.324;2024-02-14T14:18:20;5.43;;;4.93;;
35743;SDS011;21867;52.012;4.324;2024-02-14T14:20:49;6.73;;;6.27;;
35743;SDS011;21867;52.012;4.324;2024-02-14T14:23:22;6.93;;;6.33;;
35743;SDS011;21867;52.012;4.324;2024-02-14T14:32:25;6.83;;;6.30;;
35743;SDS011;21867;52.012;4.324;2024-02-14T14:34:52;7.50;;;5.83;;
35743;SDS011;21867;52.012;4.324;2024-02-14T14:37:21;8.10;;;7.33;;
35743;SDS011;21867;52.012;4.324;2024-02-14T14:39:48;7.07;;;6.47;;
35743;SDS011;21867;52.012;4.324;2024-02-14T14:45:17;10.23;;;7.40;;
35743;SDS011;21867;52.012;4.324;2024-02-14T14:47:44;9.53;;;6.37;;
35743;SDS011;21867;52.012;4.324;2024-02-14T14:50:12;9.63;;;7.23;;
35743;SDS011;21867;52.012;4.324;2024-02-14T14:52:42;7.53;;;6.17;;
35743;SDS011;21867;52.012;4.324;2024-02-14T14:55:12;13.90;;;6.87;;
35743;SDS011;21867;52.012;4.324;2024-02-14T14:57:40;6.67;;;4.77;;
35743;SDS011;21867;52.012;4.324;2024-02-14T15:00:07;8.93;;;5.13;;
35743;SDS011;21867;52.012;4.324;2024-02-14T15:02:35;10.77;;;6.83;;
35743;SDS011;21867;52.012;4.324;2024-02-14T15:05:02;14.77;;;9.20;;
35743;SDS011;21867;52.012;4.324;2024-02-14T15:07:30;6.70;;;5.90;;